sensor_id;sensor_type;location;lat;lon;timestamp;temperature;humidity
8459;DHT22;4266;48.816;9.154;2023-09-07T00:02:25;14.60;99.90
8459;DHT22;4266;48.816;9.154;2023-09-07T00:04:51;14.60;99.90
8459;DHT22;4266;48.816;9.154;2023-09-07T00:07:18;14.60;99.90
8459;DHT22;4266;48.816;9.154;2023-09-07T00:09:45;14.60;99.90
8459;DHT22;4266;48.816;9.154;2023-09-07T00:12:11;14.60;99.90
8459;DHT22;4266;48.816;9.154;2023-09-07T00:14:37;14.60;99.90
8459;DHT22;4266;48.816;9.154;2023-09-07T00:17:03;14.60;99.90
8459;DHT22;4266;48.816;9.154;2023-09-07T00:19:29;14.50;99.90
8459;DHT22;4266;48.816;9.154;2023-09-07T00:21:54;14.60;99.90
8459;DHT22;4266;48.816;9.154;2023-09-07T00:24:20;14.60;99.90
8459;DHT22;4266;48.816;9.154;2023-09-07T00:26:46;14.60;99.90
8459;DHT22;4266;48.816;9.154;2023-09-07T00:29:11;14.60;99.90
8459;DHT22;4266;48.816;9.154;2023-09-07T00:31:38;14.50;99.90
8459;DHT22;4266;48.816;9.154;2023-09-07T00:34:04;14.50;99.90
8459;DHT22;4266;48.816;9.154;2023-09-07T00:36:30;14.40;99.90
8459;DHT22;4266;48.816;9.154;2023-09-07T00:38:56;14.40;99.90
8459;DHT22;4266;48.816;9.154;2023-09-07T00:41:21;14.40;99.90
8459;DHT22;4266;48.816;9.154;2023-09-07T00:43:47;14.40;99.90
8459;DHT22;4266;48.816;9.154;2023-09-07T00:46:13;14.30;99.90
8459;DHT22;4266;48.816;9.154;2023-09-07T00:48:39;14.30;99.90
8459;DHT22;4266;48.816;9.154;2023-09-07T00:51:04;14.30;99.90
8459;DHT22;4266;48.816;9.154;2023-09-07T00:53:30;14.20;99.90
8459;DHT22;4266;48.816;9.154;2023-09-07T00:55:56;14.10;99.90
8459;DHT22;4266;48.816;9.154;2023-09-07T00:58:22;14.10;99.90
8459;DHT22;4266;48.816;9.154;2023-09-07T01:00:48;14.10;99.90
8459;DHT22;4266;48.816;9.154;2023-09-07T01:03:14;14.10;99.90
8459;DHT22;4266;48.816;9.154;2023-09-07T01:05:43;14.10;99.90
8459;DHT22;4266;48.816;9.154;2023-09-07T01:08:10;14.10;99.90
8459;DHT22;4266;48.816;9.154;2023-09-07T01:10:33;14.10;99.90
8459;DHT22;4266;48.816;9.154;2023-09-07T01:12:59;14.10;99.90
8459;DHT22;4266;48.816;9.154;2023-09-07T01:15:25;14.10;99.90
8459;DHT22;4266;48.816;9.154;2023-09-07T01:17:51;14.00;99.90
8459;DHT22;4266;48.816;9.154;2023-09-07T01:20:16;14.00;99.90
8459;DHT22;4266;48.816;9.154;2023-09-07T01:22:43;14.00;99.90
8459;DHT22;4266;48.816;9.154;2023-09-07T01:25:08;14.00;99.90
8459;DHT22;4266;48.816;9.154;2023-09-07T01:27:34;14.00;99.90
8459;DHT22;4266;48.816;9.154;2023-09-07T01:30:00;13.90;99.90
8459;DHT22;4266;48.816;9.154;2023-09-07T01:32:25;13.90;99.90
8459;DHT22;4266;48.816;9.154;2023-09-07T01:34:51;13.90;99.90
8459;DHT22;4266;48.816;9.154;2023-09-07T01:37:18;13.90;99.90
8459;DHT22;4266;48.816;9.154;2023-09-07T01:39:44;13.90;99.90
8459;DHT22;4266;48.816;9.154;2023-09-07T01:42:10;13.90;99.90
8459;DHT22;4266;48.816;9.154;2023-09-07T01:44:35;13.90;99.90
8459;DHT22;4266;48.816;9.154;2023-09-07T01:47:02;13.90;99.90
8459;DHT22;4266;48.816;9.154;2023-09-07T01:49:28;13.80;99.90
8459;DHT22;4266;48.816;9.154;2023-09-07T01:51:53;13.80;99.90
8459;DHT22;4266;48.816;9.154;2023-09-07T01:54:21;13.70;99.90
8459;DHT22;4266;48.816;9.154;2023-09-07T01:56:45;13.70;99.90
8459;DHT22;4266;48.816;9.154;2023-09-07T01:59:11;13.70;99.90
8459;DHT22;4266;48.816;9.154;2023-09-07T02:01:37;13.70;99.90
8459;DHT22;4266;48.816;9.154;2023-09-07T02:04:04;13.70;99.90
8459;DHT22;4266;48.816;9.154;2023-09-07T02:06:30;13.70;99.90
8459;DHT22;4266;48.816;9.154;2023-09-07T02:08:55;13.70;99.90
8459;DHT22;4266;48.816;9.154;2023-09-07T02:11:21;13.70;99.90
8459;DHT22;4266;48.816;9.154;2023-09-07T02:13:47;13.60;99.90
8459;DHT22;4266;48.816;9.154;2023-09-07T02:16:13;13.70;99.90
8459;DHT22;4266;48.816;9.154;2023-09-07T02:18:38;13.60;99.90
8459;DHT22;4266;48.816;9.154;2023-09-07T02:21:05;13.60;99.90
8459;DHT22;4266;48.816;9.154;2023-09-07T02:23:31;13.60;99.90
8459;DHT22;4266;48.816;9.154;2023-09-07T02:25:56;13.60;99.90
8459;DHT22;4266;48.816;9.154;2023-09-07T02:28:23;13.70;99.90
8459;DHT22;4266;48.816;9.154;2023-09-07T02:30:49;13.70;99.90
8459;DHT22;4266;48.816;9.154;2023-09-07T02:33:16;13.60;99.90
8459;DHT22;4266;48.816;9.154;2023-09-07T02:35:41;13.60;99.90
8459;DHT22;4266;48.816;9.154;2023-09-07T02:38:07;13.60;99.90
8459;DHT22;4266;48.816;9.154;2023-09-07T02:40:33;13.60;99.90
8459;DHT22;4266;48.816;9.154;2023-09-07T02:42:58;13.60;99.90
8459;DHT22;4266;48.816;9.154;2023-09-07T02:45:25;13.60;99.90
8459;DHT22;4266;48.816;9.154;2023-09-07T02:47:51;13.60;99.90
8459;DHT22;4266;48.816;9.154;2023-09-07T02:50:18;13.60;99.90
8459;DHT22;4266;48.816;9.154;2023-09-07T02:52:43;13.60;99.90
8459;DHT22;4266;48.816;9.154;2023-09-07T02:55:09;13.50;99.90
8459;DHT22;4266;48.816;9.154;2023-09-07T02:57:35;13.50;99.90
8459;DHT22;4266;48.816;9.154;2023-09-07T03:00:01;13.50;99.90
8459;DHT22;4266;48.816;9.154;2023-09-07T03:02:27;13.50;99.90
8459;DHT22;4266;48.816;9.154;2023-09-07T03:04:54;13.40;99.90
8459;DHT22;4266;48.816;9.154;2023-09-07T03:07:20;13.40;99.90
8459;DHT22;4266;48.816;9.154;2023-09-07T03:09:45;13.40;99.90
8459;DHT22;4266;48.816;9.154;2023-09-07T03:12:11;13.40;99.90
8459;DHT22;4266;48.816;9.154;2023-09-07T03:14:38;13.30;99.90
8459;DHT22;4266;48.816;9.154;2023-09-07T03:17:03;13.30;99.90
8459;DHT22;4266;48.816;9.154;2023-09-07T03:19:29;13.30;99.90
8459;DHT22;4266;48.816;9.154;2023-09-07T03:21:55;13.30;99.90
8459;DHT22;4266;48.816;9.154;2023-09-07T03:24:22;13.30;99.90
8459;DHT22;4266;48.816;9.154;2023-09-07T03:26:48;13.30;99.90
8459;DHT22;4266;48.816;9.154;2023-09-07T03:29:14;13.30;99.90
8459;DHT22;4266;48.816;9.154;2023-09-07T03:31:40;13.20;99.90
8459;DHT22;4266;48.816;9.154;2023-09-07T03:34:05;13.20;99.90
8459;DHT22;4266;48.816;9.154;2023-09-07T03:36:31;13.30;99.90
8459;DHT22;4266;48.816;9.154;2023-09-07T03:38:57;13.20;99.90
8459;DHT22;4266;48.816;9.154;2023-09-07T03:41:22;13.20;99.90
8459;DHT22;4266;48.816;9.154;2023-09-07T03:43:48;13.10;99.90
8459;DHT22;4266;48.816;9.154;2023-09-07T03:46:14;13.10;99.90
8459;DHT22;4266;48.816;9.154;2023-09-07T03:48:40;13.10;99.90
8459;DHT22;4266;48.816;9.154;2023-09-07T03:51:06;13.10;99.90
8459;DHT22;4266;48.816;9.154;2023-09-07T03:53:31;13.00;99.90
8459;DHT22;4266;48.816;9.154;2023-09-07T03:55:57;13.00;99.90
8459;DHT22;4266;48.816;9.154;2023-09-07T03:58:23;13.00;99.90
8459;DHT22;4266;48.816;9.154;2023-09-07T04:00:49;13.00;99.90
8459;DHT22;4266;48.816;9.154;2023-09-07T04:03:14;12.90;99.90
8459;DHT22;4266;48.816;9.154;2023-09-07T04:05:40;12.90;99.90
8459;DHT22;4266;48.816;9.154;2023-09-07T04:08:06;12.90;99.90
8459;DHT22;4266;48.816;9.154;2023-09-07T04:10:32;12.90;99.90
8459;DHT22;4266;48.816;9.154;2023-09-07T04:12:58;12.90;99.90
8459;DHT22;4266;48.816;9.154;2023-09-07T04:15:24;12.90;99.90
8459;DHT22;4266;48.816;9.154;2023-09-07T04:17:50;12.80;99.90
8459;DHT22;4266;48.816;9.154;2023-09-07T04:20:15;12.70;99.90
8459;DHT22;4266;48.816;9.154;2023-09-07T04:22:41;12.70;99.90
8459;DHT22;4266;48.816;9.154;2023-09-07T04:25:08;12.70;99.90
8459;DHT22;4266;48.816;9.154;2023-09-07T04:27:34;12.60;99.90
8459;DHT22;4266;48.816;9.154;2023-09-07T04:30:00;12.60;99.90
8459;DHT22;4266;48.816;9.154;2023-09-07T04:32:25;12.60;99.90
8459;DHT22;4266;48.816;9.154;2023-09-07T04:34:55;12.60;99.90
8459;DHT22;4266;48.816;9.154;2023-09-07T04:37:20;12.60;99.90
8459;DHT22;4266;48.816;9.154;2023-09-07T04:39:45;12.60;99.90
8459;DHT22;4266;48.816;9.154;2023-09-07T04:42:11;12.60;99.90
8459;DHT22;4266;48.816;9.154;2023-09-07T04:44:37;12.60;99.90
8459;DHT22;4266;48.816;9.154;2023-09-07T04:47:03;12.60;99.90
8459;DHT22;4266;48.816;9.154;2023-09-07T04:49:28;12.50;99.90
8459;DHT22;4266;48.816;9.154;2023-09-07T04:51:54;12.50;99.90
8459;DHT22;4266;48.816;9.154;2023-09-07T04:54:20;12.50;99.90
8459;DHT22;4266;48.816;9.154;2023-09-07T04:56:47;12.60;99.90
8459;DHT22;4266;48.816;9.154;2023-09-07T04:59:12;12.60;99.90
8459;DHT22;4266;48.816;9.154;2023-09-07T05:01:38;12.70;99.90
8459;DHT22;4266;48.816;9.154;2023-09-07T05:04:04;12.80;99.90
8459;DHT22;4266;48.816;9.154;2023-09-07T05:06:30;12.90;99.90
8459;DHT22;4266;48.816;9.154;2023-09-07T05:08:55;12.90;99.90
8459;DHT22;4266;48.816;9.154;2023-09-07T05:11:21;13.00;99.90
8459;DHT22;4266;48.816;9.154;2023-09-07T05:13:47;13.30;99.90
8459;DHT22;4266;48.816;9.154;2023-09-07T05:16:14;13.40;99.90
8459;DHT22;4266;48.816;9.154;2023-09-07T05:18:41;13.60;99.90
8459;DHT22;4266;48.816;9.154;2023-09-07T05:21:11;13.60;99.90
8459;DHT22;4266;48.816;9.154;2023-09-07T05:23:36;13.80;99.90
8459;DHT22;4266;48.816;9.154;2023-09-07T05:26:01;14.00;99.90
8459;DHT22;4266;48.816;9.154;2023-09-07T05:28:27;14.40;99.90
8459;DHT22;4266;48.816;9.154;2023-09-07T05:30:53;14.80;99.90
8459;DHT22;4266;48.816;9.154;2023-09-07T05:33:18;15.40;99.90
8459;DHT22;4266;48.816;9.154;2023-09-07T05:35:44;15.90;99.40
8459;DHT22;4266;48.816;9.154;2023-09-07T05:38:11;16.80;97.40
8459;DHT22;4266;48.816;9.154;2023-09-07T05:40:38;16.80;97.40
8459;DHT22;4266;48.816;9.154;2023-09-07T05:43:04;17.70;94.10
8459;DHT22;4266;48.816;9.154;2023-09-07T05:45:34;17.70;94.00
8459;DHT22;4266;48.816;9.154;2023-09-07T05:47:57;17.90;93.50
8459;DHT22;4266;48.816;9.154;2023-09-07T05:50:23;18.40;92.80
8459;DHT22;4266;48.816;9.154;2023-09-07T05:52:49;18.80;91.10
8459;DHT22;4266;48.816;9.154;2023-09-07T05:55:15;18.80;90.90
8459;DHT22;4266;48.816;9.154;2023-09-07T05:57:40;18.60;91.10
8459;DHT22;4266;48.816;9.154;2023-09-07T06:00:07;18.50;90.80
8459;DHT22;4266;48.816;9.154;2023-09-07T06:02:33;18.40;91.00
8459;DHT22;4266;48.816;9.154;2023-09-07T06:05:00;19.40;90.10
8459;DHT22;4266;48.816;9.154;2023-09-07T06:07:26;18.70;90.20
8459;DHT22;4266;48.816;9.154;2023-09-07T06:09:52;18.60;90.10
8459;DHT22;4266;48.816;9.154;2023-09-07T06:12:18;19.10;89.50
8459;DHT22;4266;48.816;9.154;2023-09-07T06:14:43;19.20;89.60
8459;DHT22;4266;48.816;9.154;2023-09-07T06:17:10;19.70;87.60
8459;DHT22;4266;48.816;9.154;2023-09-07T06:19:36;19.70;87.60
8459;DHT22;4266;48.816;9.154;2023-09-07T06:22:01;20.00;86.50
8459;DHT22;4266;48.816;9.154;2023-09-07T06:24:28;20.60;86.40
8459;DHT22;4266;48.816;9.154;2023-09-07T06:26:54;20.60;86.30
8459;DHT22;4266;48.816;9.154;2023-09-07T06:29:20;20.90;84.60
8459;DHT22;4266;48.816;9.154;2023-09-07T06:31:46;20.90;84.60
8459;DHT22;4266;48.816;9.154;2023-09-07T06:34:11;21.00;83.50
8459;DHT22;4266;48.816;9.154;2023-09-07T06:36:37;20.70;83.70
8459;DHT22;4266;48.816;9.154;2023-09-07T06:39:03;22.10;82.50
8459;DHT22;4266;48.816;9.154;2023-09-07T06:41:29;21.80;82.00
8459;DHT22;4266;48.816;9.154;2023-09-07T06:43:55;23.30;79.30
8459;DHT22;4266;48.816;9.154;2023-09-07T06:46:21;24.00;75.90
8459;DHT22;4266;48.816;9.154;2023-09-07T06:48:47;23.90;75.80
8459;DHT22;4266;48.816;9.154;2023-09-07T06:51:12;24.40;74.90
8459;DHT22;4266;48.816;9.154;2023-09-07T06:53:38;25.60;72.80
8459;DHT22;4266;48.816;9.154;2023-09-07T06:56:04;24.10;72.20
8459;DHT22;4266;48.816;9.154;2023-09-07T06:58:30;25.20;70.90
8459;DHT22;4266;48.816;9.154;2023-09-07T07:00:58;26.30;68.80
8459;DHT22;4266;48.816;9.154;2023-09-07T07:03:25;25.80;68.20
8459;DHT22;4266;48.816;9.154;2023-09-07T07:05:49;27.20;68.10
8459;DHT22;4266;48.816;9.154;2023-09-07T07:08:14;26.10;65.70
8459;DHT22;4266;48.816;9.154;2023-09-07T07:10:41;24.80;66.40
8459;DHT22;4266;48.816;9.154;2023-09-07T07:13:06;24.80;66.40
8459;DHT22;4266;48.816;9.154;2023-09-07T07:15:32;24.90;65.40
8459;DHT22;4266;48.816;9.154;2023-09-07T07:17:58;25.00;66.20
8459;DHT22;4266;48.816;9.154;2023-09-07T07:20:23;24.90;65.40
8459;DHT22;4266;48.816;9.154;2023-09-07T07:22:50;25.10;66.80
8459;DHT22;4266;48.816;9.154;2023-09-07T07:25:16;24.80;68.20
8459;DHT22;4266;48.816;9.154;2023-09-07T07:27:43;24.90;67.00
8459;DHT22;4266;48.816;9.154;2023-09-07T07:30:09;24.90;67.00
8459;DHT22;4266;48.816;9.154;2023-09-07T07:32:35;25.40;66.50
8459;DHT22;4266;48.816;9.154;2023-09-07T07:35:00;25.30;65.70
8459;DHT22;4266;48.816;9.154;2023-09-07T07:37:26;25.40;66.50
8459;DHT22;4266;48.816;9.154;2023-09-07T07:39:52;25.20;66.30
8459;DHT22;4266;48.816;9.154;2023-09-07T07:42:18;25.40;66.70
8459;DHT22;4266;48.816;9.154;2023-09-07T07:44:45;26.00;65.50
8459;DHT22;4266;48.816;9.154;2023-09-07T07:47:11;26.00;64.10
8459;DHT22;4266;48.816;9.154;2023-09-07T07:49:37;26.00;64.10
8459;DHT22;4266;48.816;9.154;2023-09-07T07:52:04;25.60;64.50
8459;DHT22;4266;48.816;9.154;2023-09-07T07:54:30;25.60;64.50
8459;DHT22;4266;48.816;9.154;2023-09-07T07:56:56;26.50;63.10
8459;DHT22;4266;48.816;9.154;2023-09-07T07:59:21;26.20;64.10
8459;DHT22;4266;48.816;9.154;2023-09-07T08:01:47;26.80;63.00
8459;DHT22;4266;48.816;9.154;2023-09-07T08:04:13;26.80;62.90
8459;DHT22;4266;48.816;9.154;2023-09-07T08:06:40;26.20;62.60
8459;DHT22;4266;48.816;9.154;2023-09-07T08:09:06;26.20;62.60
8459;DHT22;4266;48.816;9.154;2023-09-07T08:11:32;26.70;62.10
8459;DHT22;4266;48.816;9.154;2023-09-07T08:13:58;26.60;62.00
8459;DHT22;4266;48.816;9.154;2023-09-07T08:16:23;26.40;61.90
8459;DHT22;4266;48.816;9.154;2023-09-07T08:18:49;26.20;62.30
8459;DHT22;4266;48.816;9.154;2023-09-07T08:21:16;27.00;62.40
8459;DHT22;4266;48.816;9.154;2023-09-07T08:23:41;27.00;62.30
8459;DHT22;4266;48.816;9.154;2023-09-07T08:26:07;27.00;60.90
8459;DHT22;4266;48.816;9.154;2023-09-07T08:28:33;27.00;61.60
8459;DHT22;4266;48.816;9.154;2023-09-07T08:30:58;27.40;61.70
8459;DHT22;4266;48.816;9.154;2023-09-07T08:33:24;27.60;60.80
8459;DHT22;4266;48.816;9.154;2023-09-07T08:35:51;27.30;59.80
8459;DHT22;4266;48.816;9.154;2023-09-07T08:38:17;27.80;61.20
8459;DHT22;4266;48.816;9.154;2023-09-07T08:40:44;27.70;61.90
8459;DHT22;4266;48.816;9.154;2023-09-07T08:43:10;27.70;61.90
8459;DHT22;4266;48.816;9.154;2023-09-07T08:45:37;27.60;59.30
8459;DHT22;4266;48.816;9.154;2023-09-07T08:48:01;27.80;59.40
8459;DHT22;4266;48.816;9.154;2023-09-07T08:50:30;28.00;59.40
8459;DHT22;4266;48.816;9.154;2023-09-07T08:52:56;27.90;59.40
8459;DHT22;4266;48.816;9.154;2023-09-07T08:55:23;28.10;58.70
8459;DHT22;4266;48.816;9.154;2023-09-07T08:57:51;28.20;58.90
8459;DHT22;4266;48.816;9.154;2023-09-07T09:00:17;28.20;58.90
8459;DHT22;4266;48.816;9.154;2023-09-07T09:02:45;28.10;59.70
8459;DHT22;4266;48.816;9.154;2023-09-07T09:05:09;27.60;58.80
8459;DHT22;4266;48.816;9.154;2023-09-07T09:07:34;27.50;59.50
8459;DHT22;4266;48.816;9.154;2023-09-07T09:10:05;27.80;59.30
8459;DHT22;4266;48.816;9.154;2023-09-07T09:12:31;27.40;58.70
8459;DHT22;4266;48.816;9.154;2023-09-07T09:14:58;27.90;58.70
8459;DHT22;4266;48.816;9.154;2023-09-07T09:17:24;27.90;58.70
8459;DHT22;4266;48.816;9.154;2023-09-07T09:19:50;28.20;61.80
8459;DHT22;4266;48.816;9.154;2023-09-07T09:22:15;28.20;61.80
8459;DHT22;4266;48.816;9.154;2023-09-07T09:24:41;28.30;58.60
8459;DHT22;4266;48.816;9.154;2023-09-07T09:27:07;28.10;58.40
8459;DHT22;4266;48.816;9.154;2023-09-07T09:29:34;28.60;59.40
8459;DHT22;4266;48.816;9.154;2023-09-07T09:32:03;28.40;59.30
8459;DHT22;4266;48.816;9.154;2023-09-07T09:34:35;28.30;59.30
8459;DHT22;4266;48.816;9.154;2023-09-07T09:37:01;28.70;58.30
8459;DHT22;4266;48.816;9.154;2023-09-07T09:39:26;28.10;60.00
8459;DHT22;4266;48.816;9.154;2023-09-07T09:41:52;28.30;58.90
8459;DHT22;4266;48.816;9.154;2023-09-07T09:44:21;28.50;59.40
8459;DHT22;4266;48.816;9.154;2023-09-07T09:46:46;28.50;59.70
8459;DHT22;4266;48.816;9.154;2023-09-07T09:49:12;28.80;59.00
8459;DHT22;4266;48.816;9.154;2023-09-07T09:51:38;28.50;59.20
8459;DHT22;4266;48.816;9.154;2023-09-07T09:54:06;28.60;58.60
8459;DHT22;4266;48.816;9.154;2023-09-07T09:56:31;28.30;59.30
8459;DHT22;4266;48.816;9.154;2023-09-07T09:58:58;28.40;59.10
8459;DHT22;4266;48.816;9.154;2023-09-07T10:01:24;28.70;59.90
8459;DHT22;4266;48.816;9.154;2023-09-07T10:03:51;28.70;58.50
8459;DHT22;4266;48.816;9.154;2023-09-07T10:06:18;28.60;58.40
8459;DHT22;4266;48.816;9.154;2023-09-07T10:09:05;28.50;59.90
8459;DHT22;4266;48.816;9.154;2023-09-07T10:11:31;28.50;59.90
8459;DHT22;4266;48.816;9.154;2023-09-07T10:13:58;28.60;58.50
8459;DHT22;4266;48.816;9.154;2023-09-07T10:16:24;28.70;58.70
8459;DHT22;4266;48.816;9.154;2023-09-07T10:18:51;29.20;59.40
8459;DHT22;4266;48.816;9.154;2023-09-07T10:21:16;29.10;59.30
8459;DHT22;4266;48.816;9.154;2023-09-07T10:23:42;28.80;58.50
8459;DHT22;4266;48.816;9.154;2023-09-07T10:26:15;28.90;58.00
8459;DHT22;4266;48.816;9.154;2023-09-07T10:28:39;28.80;58.00
8459;DHT22;4266;48.816;9.154;2023-09-07T10:31:06;28.90;58.50
8459;DHT22;4266;48.816;9.154;2023-09-07T10:33:31;29.50;58.40
8459;DHT22;4266;48.816;9.154;2023-09-07T10:35:56;29.10;57.60
8459;DHT22;4266;48.816;9.154;2023-09-07T10:38:22;28.70;58.10
8459;DHT22;4266;48.816;9.154;2023-09-07T10:40:48;28.80;58.50
8459;DHT22;4266;48.816;9.154;2023-09-07T10:43:13;29.10;57.90
8459;DHT22;4266;48.816;9.154;2023-09-07T10:45:39;29.60;59.20
8459;DHT22;4266;48.816;9.154;2023-09-07T10:48:05;29.60;57.90
8459;DHT22;4266;48.816;9.154;2023-09-07T10:50:41;29.60;57.70
8459;DHT22;4266;48.816;9.154;2023-09-07T10:52:57;29.80;57.80
8459;DHT22;4266;48.816;9.154;2023-09-07T10:55:23;29.20;57.60
8459;DHT22;4266;48.816;9.154;2023-09-07T10:57:48;29.60;57.60
8459;DHT22;4266;48.816;9.154;2023-09-07T11:00:15;29.90;57.70
8459;DHT22;4266;48.816;9.154;2023-09-07T11:02:42;30.50;57.80
8459;DHT22;4266;48.816;9.154;2023-09-07T11:05:08;30.40;57.80
8459;DHT22;4266;48.816;9.154;2023-09-07T11:07:33;30.40;58.00
8459;DHT22;4266;48.816;9.154;2023-09-07T11:09:59;29.90;57.80
8459;DHT22;4266;48.816;9.154;2023-09-07T11:12:25;29.60;57.90
8459;DHT22;4266;48.816;9.154;2023-09-07T11:14:51;30.20;58.50
8459;DHT22;4266;48.816;9.154;2023-09-07T11:17:16;30.70;57.90
8459;DHT22;4266;48.816;9.154;2023-09-07T11:19:42;29.60;57.20
8459;DHT22;4266;48.816;9.154;2023-09-07T11:22:10;29.70;57.20
8459;DHT22;4266;48.816;9.154;2023-09-07T11:24:35;29.30;57.00
8459;DHT22;4266;48.816;9.154;2023-09-07T11:27:01;29.80;57.50
8459;DHT22;4266;48.816;9.154;2023-09-07T11:29:27;29.80;57.50
8459;DHT22;4266;48.816;9.154;2023-09-07T11:31:53;29.60;57.40
8459;DHT22;4266;48.816;9.154;2023-09-07T11:34:18;29.70;57.20
8459;DHT22;4266;48.816;9.154;2023-09-07T11:36:44;29.90;58.50
8459;DHT22;4266;48.816;9.154;2023-09-07T11:39:10;29.70;58.50
8459;DHT22;4266;48.816;9.154;2023-09-07T11:41:39;29.60;57.90
8459;DHT22;4266;48.816;9.154;2023-09-07T11:44:04;29.70;57.60
8459;DHT22;4266;48.816;9.154;2023-09-07T11:46:30;30.10;58.80
8459;DHT22;4266;48.816;9.154;2023-09-07T11:48:56;30.40;58.10
8459;DHT22;4266;48.816;9.154;2023-09-07T11:51:22;30.40;57.80
8459;DHT22;4266;48.816;9.154;2023-09-07T11:53:48;30.00;56.50
8459;DHT22;4266;48.816;9.154;2023-09-07T11:56:13;30.00;57.50
8459;DHT22;4266;48.816;9.154;2023-09-07T11:58:40;30.20;56.40
8459;DHT22;4266;48.816;9.154;2023-09-07T12:01:05;30.20;56.40
8459;DHT22;4266;48.816;9.154;2023-09-07T12:03:31;29.70;57.00
8459;DHT22;4266;48.816;9.154;2023-09-07T12:05:57;30.20;57.90
8459;DHT22;4266;48.816;9.154;2023-09-07T12:08:22;30.60;57.40
8459;DHT22;4266;48.816;9.154;2023-09-07T12:10:49;30.00;57.00
8459;DHT22;4266;48.816;9.154;2023-09-07T12:13:15;29.90;57.00
8459;DHT22;4266;48.816;9.154;2023-09-07T12:15:40;30.30;56.80
8459;DHT22;4266;48.816;9.154;2023-09-07T12:18:06;30.70;57.00
8459;DHT22;4266;48.816;9.154;2023-09-07T12:20:32;30.50;56.80
8459;DHT22;4266;48.816;9.154;2023-09-07T12:22:57;30.50;57.00
8459;DHT22;4266;48.816;9.154;2023-09-07T12:25:23;30.70;56.90
8459;DHT22;4266;48.816;9.154;2023-09-07T12:27:49;30.60;55.30
8459;DHT22;4266;48.816;9.154;2023-09-07T12:30:15;30.20;55.20
8459;DHT22;4266;48.816;9.154;2023-09-07T12:32:42;30.10;55.60
8459;DHT22;4266;48.816;9.154;2023-09-07T12:35:08;30.00;55.60
8459;DHT22;4266;48.816;9.154;2023-09-07T12:37:35;29.80;56.70
8459;DHT22;4266;48.816;9.154;2023-09-07T12:40:01;30.20;56.70
8459;DHT22;4266;48.816;9.154;2023-09-07T12:42:26;30.00;56.30
8459;DHT22;4266;48.816;9.154;2023-09-07T12:44:51;30.10;56.80
8459;DHT22;4266;48.816;9.154;2023-09-07T12:47:18;30.60;57.30
8459;DHT22;4266;48.816;9.154;2023-09-07T12:49:44;30.60;57.30
8459;DHT22;4266;48.816;9.154;2023-09-07T12:52:09;30.60;56.40
8459;DHT22;4266;48.816;9.154;2023-09-07T12:54:36;29.80;55.90
8459;DHT22;4266;48.816;9.154;2023-09-07T12:57:02;29.80;55.90
8459;DHT22;4266;48.816;9.154;2023-09-07T12:59:28;30.20;57.70
8459;DHT22;4266;48.816;9.154;2023-09-07T13:01:53;30.50;56.90
8459;DHT22;4266;48.816;9.154;2023-09-07T13:04:19;30.50;56.20
8459;DHT22;4266;48.816;9.154;2023-09-07T13:06:44;30.40;56.70
8459;DHT22;4266;48.816;9.154;2023-09-07T13:09:11;30.10;56.00
8459;DHT22;4266;48.816;9.154;2023-09-07T13:11:36;30.10;56.10
8459;DHT22;4266;48.816;9.154;2023-09-07T13:14:02;30.20;56.20
8459;DHT22;4266;48.816;9.154;2023-09-07T13:16:28;30.40;55.80
8459;DHT22;4266;48.816;9.154;2023-09-07T13:18:54;30.20;55.30
8459;DHT22;4266;48.816;9.154;2023-09-07T13:21:20;30.20;55.30
8459;DHT22;4266;48.816;9.154;2023-09-07T13:23:46;30.00;55.20
8459;DHT22;4266;48.816;9.154;2023-09-07T13:26:11;30.10;55.80
8459;DHT22;4266;48.816;9.154;2023-09-07T13:28:37;30.00;55.40
8459;DHT22;4266;48.816;9.154;2023-09-07T13:31:03;29.70;55.00
8459;DHT22;4266;48.816;9.154;2023-09-07T13:33:28;29.50;55.10
8459;DHT22;4266;48.816;9.154;2023-09-07T13:35:54;29.60;55.70
8459;DHT22;4266;48.816;9.154;2023-09-07T13:38:20;29.70;54.70
8459;DHT22;4266;48.816;9.154;2023-09-07T13:40:46;29.90;55.60
8459;DHT22;4266;48.816;9.154;2023-09-07T13:43:12;29.90;55.50
8459;DHT22;4266;48.816;9.154;2023-09-07T13:45:38;29.80;55.50
8459;DHT22;4266;48.816;9.154;2023-09-07T13:48:05;29.50;56.80
8459;DHT22;4266;48.816;9.154;2023-09-07T13:50:31;29.60;56.40
8459;DHT22;4266;48.816;9.154;2023-09-07T13:52:57;29.50;56.40
8459;DHT22;4266;48.816;9.154;2023-09-07T13:55:23;29.70;56.80
8459;DHT22;4266;48.816;9.154;2023-09-07T13:57:48;29.80;56.80
8459;DHT22;4266;48.816;9.154;2023-09-07T14:00:14;29.70;56.40
8459;DHT22;4266;48.816;9.154;2023-09-07T14:02:40;29.30;56.40
8459;DHT22;4266;48.816;9.154;2023-09-07T14:05:07;29.10;56.00
8459;DHT22;4266;48.816;9.154;2023-09-07T14:07:34;29.20;56.20
8459;DHT22;4266;48.816;9.154;2023-09-07T14:09:59;29.20;56.20
8459;DHT22;4266;48.816;9.154;2023-09-07T14:12:25;29.20;56.50
8459;DHT22;4266;48.816;9.154;2023-09-07T14:14:51;29.20;56.60
8459;DHT22;4266;48.816;9.154;2023-09-07T14:17:16;29.20;57.20
8459;DHT22;4266;48.816;9.154;2023-09-07T14:19:43;29.30;56.50
8459;DHT22;4266;48.816;9.154;2023-09-07T14:22:09;29.30;56.80
8459;DHT22;4266;48.816;9.154;2023-09-07T14:24:35;29.30;56.70
8459;DHT22;4266;48.816;9.154;2023-09-07T14:27:01;29.30;56.90
8459;DHT22;4266;48.816;9.154;2023-09-07T14:29:27;29.00;55.80
8459;DHT22;4266;48.816;9.154;2023-09-07T14:31:53;29.00;55.80
8459;DHT22;4266;48.816;9.154;2023-09-07T14:34:18;29.00;55.80
8459;DHT22;4266;48.816;9.154;2023-09-07T14:36:44;29.00;55.50
8459;DHT22;4266;48.816;9.154;2023-09-07T14:39:10;29.00;55.80
8459;DHT22;4266;48.816;9.154;2023-09-07T14:41:36;29.00;55.80
8459;DHT22;4266;48.816;9.154;2023-09-07T14:44:02;28.80;55.10
8459;DHT22;4266;48.816;9.154;2023-09-07T14:46:28;28.90;55.40
8459;DHT22;4266;48.816;9.154;2023-09-07T14:48:53;28.80;55.70
8459;DHT22;4266;48.816;9.154;2023-09-07T14:51:19;28.80;56.00
8459;DHT22;4266;48.816;9.154;2023-09-07T14:53:45;28.80;56.20
8459;DHT22;4266;48.816;9.154;2023-09-07T14:56:11;28.80;56.00
8459;DHT22;4266;48.816;9.154;2023-09-07T14:58:36;28.90;55.20
8459;DHT22;4266;48.816;9.154;2023-09-07T15:01:02;28.90;55.30
8459;DHT22;4266;48.816;9.154;2023-09-07T15:03:27;29.00;55.90
8459;DHT22;4266;48.816;9.154;2023-09-07T15:05:53;28.90;56.00
8459;DHT22;4266;48.816;9.154;2023-09-07T15:08:19;28.80;55.10
8459;DHT22;4266;48.816;9.154;2023-09-07T15:10:45;28.80;55.70
8459;DHT22;4266;48.816;9.154;2023-09-07T15:13:11;28.80;55.70
8459;DHT22;4266;48.816;9.154;2023-09-07T15:15:36;28.70;55.50
8459;DHT22;4266;48.816;9.154;2023-09-07T15:18:03;28.60;56.30
8459;DHT22;4266;48.816;9.154;2023-09-07T15:20:29;28.60;56.30
8459;DHT22;4266;48.816;9.154;2023-09-07T15:22:56;28.70;56.60
8459;DHT22;4266;48.816;9.154;2023-09-07T15:25:21;28.50;55.40
8459;DHT22;4266;48.816;9.154;2023-09-07T15:27:48;28.40;55.30
8459;DHT22;4266;48.816;9.154;2023-09-07T15:30:14;28.40;55.20
8459;DHT22;4266;48.816;9.154;2023-09-07T15:32:39;28.40;56.10
8459;DHT22;4266;48.816;9.154;2023-09-07T15:35:07;28.20;56.10
8459;DHT22;4266;48.816;9.154;2023-09-07T15:37:33;28.10;56.00
8459;DHT22;4266;48.816;9.154;2023-09-07T15:39:59;28.10;56.00
8459;DHT22;4266;48.816;9.154;2023-09-07T15:42:25;28.10;55.70
8459;DHT22;4266;48.816;9.154;2023-09-07T15:44:52;28.10;56.00
8459;DHT22;4266;48.816;9.154;2023-09-07T15:47:18;28.10;56.00
8459;DHT22;4266;48.816;9.154;2023-09-07T15:49:44;28.10;56.00
8459;DHT22;4266;48.816;9.154;2023-09-07T15:52:12;28.00;55.70
8459;DHT22;4266;48.816;9.154;2023-09-07T15:54:37;28.00;55.70